createdAt,value
2022-11-17T00:04:25.236Z,9.74
2022-11-17T00:09:27.613Z,9.78
2022-11-17T00:14:32.702Z,9.82
2022-11-17T00:19:53.561Z,10.00
2022-11-17T00:24:55.926Z,10.33
2022-11-17T00:29:58.262Z,10.14
2022-11-17T00:35:00.732Z,10.13
2022-11-17T00:40:04.291Z,9.95
2022-11-17T00:45:07.590Z,9.89
2022-11-17T00:50:10.744Z,9.75
2022-11-17T00:55:13.128Z,9.73
2022-11-17T01:00:16.217Z,9.71
2022-11-17T01:05:18.650Z,9.61
2022-11-17T01:10:21.231Z,9.70
2022-11-17T01:15:23.655Z,9.83
2022-11-17T01:20:28.739Z,10.03
2022-11-17T01:25:31.768Z,10.17
2022-11-17T01:30:34.827Z,10.30
2022-11-17T01:35:37.428Z,10.19
2022-11-17T01:40:39.895Z,10.09
2022-11-17T01:45:42.910Z,10.04
2022-11-17T01:50:49.431Z,10.04
2022-11-17T01:55:59.840Z,9.92
2022-11-17T02:01:02.383Z,9.82
2022-11-17T02:06:37.735Z,9.91
2022-11-17T02:11:40.668Z,10.01
2022-11-17T02:16:43.049Z,9.75
2022-11-17T02:22:07.332Z,9.76
2022-11-17T02:27:24.473Z,9.62
2022-11-17T02:32:58.888Z,9.54
2022-11-17T02:38:18.130Z,9.52
2022-11-17T02:43:43.756Z,9.61
2022-11-17T02:48:59.456Z,9.72
2022-11-17T02:54:03.059Z,9.59
2022-11-17T02:59:06.251Z,9.63
2022-11-17T03:04:27.476Z,9.77
2022-11-17T03:09:43.276Z,9.95
2022-11-17T03:15:03.991Z,9.92
2022-11-17T03:20:22.421Z,9.72
2022-11-17T03:25:27.700Z,9.43
2022-11-17T03:30:36.284Z,9.38
2022-11-17T03:35:49.293Z,9.56
2022-11-17T03:40:57.681Z,9.70
2022-11-17T03:46:07.624Z,9.79
2022-11-17T03:51:19.137Z,9.64
2022-11-17T03:56:41.159Z,9.45
2022-11-17T04:01:43.674Z,9.63
2022-11-17T04:06:46.618Z,9.68
2022-11-17T04:12:07.482Z,9.80
2022-11-17T04:17:10.125Z,9.93
2022-11-17T04:22:12.478Z,9.94
2022-11-17T04:27:33.715Z,10.12
2022-11-17T04:32:36.080Z,10.03
2022-11-17T04:37:38.663Z,9.97
2022-11-17T04:42:41.111Z,10.01
2022-11-17T04:47:43.459Z,9.99
2022-11-17T04:52:45.816Z,10.13
2022-11-17T04:57:48.169Z,10.24
2022-11-17T05:02:50.521Z,10.24
2022-11-17T05:07:53.017Z,10.28
2022-11-17T05:13:14.080Z,10.28
2022-11-17T05:18:16.457Z,10.36
2022-11-17T05:23:38.117Z,10.37
2022-11-17T05:28:41.655Z,10.19
2022-11-17T05:33:44.739Z,10.06
2022-11-17T05:38:51.256Z,10.08
2022-11-17T05:43:57.060Z,10.14
2022-11-17T05:48:59.600Z,10.19
2022-11-17T05:54:01.959Z,10.24
2022-11-17T05:59:27.702Z,10.17
2022-11-17T06:04:31.484Z,10.15
2022-11-17T06:09:36.860Z,10.48
2022-11-17T06:14:40.252Z,10.62
2022-11-17T06:19:46.945Z,10.69
2022-11-17T06:24:52.099Z,10.59
2022-11-17T06:29:55.933Z,10.51
2022-11-17T06:34:59.902Z,10.50
2022-11-17T06:40:02.425Z,10.64
2022-11-17T06:45:05.480Z,10.63
2022-11-17T06:50:12.560Z,10.69
2022-11-17T06:55:15.062Z,10.71
2022-11-17T07:00:18.231Z,10.87
2022-11-17T07:05:20.718Z,10.89
2022-11-17T07:10:23.128Z,10.92
2022-11-17T07:15:28.356Z,10.72
2022-11-17T07:20:31.551Z,10.72
2022-11-17T07:25:33.988Z,10.96
2022-11-17T07:30:39.542Z,11.00
2022-11-17T07:35:42.077Z,11.21
2022-11-17T07:40:44.613Z,11.13
2022-11-17T07:45:47.158Z,10.99
2022-11-17T07:50:49.665Z,10.90
2022-11-17T07:55:52.133Z,11.07
2022-11-17T08:00:54.611Z,11.16
2022-11-17T08:05:57.814Z,11.11
2022-11-17T08:11:07.609Z,11.12
2022-11-17T08:16:12.536Z,11.40
2022-11-17T08:21:17.770Z,11.59
2022-11-17T08:26:20.988Z,11.70
2022-11-17T08:31:23.518Z,11.72
2022-11-17T08:36:25.989Z,11.75
2022-11-17T08:41:28.483Z,11.79
2022-11-17T08:46:30.994Z,11.88
2022-11-17T08:51:33.534Z,11.99
2022-11-17T08:56:35.965Z,12.15
2022-11-17T09:01:38.715Z,12.25
2022-11-17T09:06:41.515Z,12.32
2022-11-17T09:11:44.054Z,12.42
2022-11-17T09:16:46.588Z,12.42
2022-11-17T09:21:49.071Z,12.67
2022-11-17T09:26:54.542Z,12.79
2022-11-17T09:31:59.948Z,12.87
2022-11-17T09:37:02.430Z,12.91
2022-11-17T09:42:08.124Z,13.06
2022-11-17T09:47:35.472Z,13.05
2022-11-17T09:52:44.872Z,12.87
2022-11-17T09:58:01.411Z,12.83
2022-11-17T10:03:10.687Z,12.83
2022-11-17T10:08:18.484Z,12.92
2022-11-17T10:13:35.859Z,13.04
2022-11-17T10:18:39.694Z,13.39
2022-11-17T10:23:50.669Z,13.34
2022-11-17T10:29:13.112Z,13.47
2022-11-17T10:34:41.593Z,13.54
2022-11-17T10:39:44.419Z,13.87
2022-11-17T10:44:53.559Z,13.82
2022-11-17T10:50:23.739Z,13.69
2022-11-17T10:55:37.892Z,13.66
2022-11-17T11:00:41.393Z,13.66
2022-11-17T11:06:01.854Z,14.55
2022-11-17T11:11:12.761Z,15.17
2022-11-17T11:16:15.189Z,15.96
2022-11-17T11:21:59.673Z,15.64
2022-11-17T11:27:26.386Z,15.98
2022-11-17T11:32:53.862Z,17.48
2022-11-17T11:38:08.492Z,19.48
2022-11-17T11:43:39.644Z,18.24
2022-11-17T11:48:42.178Z,20.14
2022-11-17T11:54:00.958Z,16.31
2022-11-17T11:59:21.616Z,16.39
2022-11-17T12:04:48.665Z,16.65
2022-11-17T12:10:04.011Z,15.65
2022-11-17T12:15:26.650Z,16.10
2022-11-17T12:20:31.827Z,16.77
2022-11-17T12:25:36.198Z,17.34
2022-11-17T12:30:47.080Z,16.40
2022-11-17T12:36:16.698Z,15.11
2022-11-17T12:41:47.168Z,14.63
2022-11-17T12:46:55.119Z,14.38
2022-11-17T12:52:06.525Z,14.09
2022-11-17T12:57:15.622Z,14.08
2022-11-17T13:02:20.965Z,14.09
2022-11-17T13:07:27.205Z,14.24
2022-11-17T13:12:35.015Z,14.15
2022-11-17T13:17:43.767Z,14.31
2022-11-17T13:23:06.793Z,14.39
2022-11-17T13:28:34.373Z,14.34
2022-11-17T13:33:40.270Z,14.11
2022-11-17T13:38:51.284Z,14.00
2022-11-17T13:43:55.261Z,14.01
2022-11-17T13:48:57.869Z,13.87
2022-11-17T13:54:13.034Z,13.85
2022-11-17T13:59:32.647Z,13.64
2022-11-17T14:04:36.292Z,13.56
2022-11-17T14:09:39.017Z,13.64
2022-11-17T14:14:44.373Z,13.54
2022-11-17T14:19:47.275Z,13.53
2022-11-17T14:24:50.260Z,13.60
2022-11-17T14:29:52.729Z,13.46
2022-11-17T14:34:55.214Z,13.41
2022-11-17T14:39:58.386Z,13.38
2022-11-17T14:45:00.891Z,13.37
2022-11-17T14:50:06.477Z,13.36
2022-11-17T14:55:11.144Z,13.47
2022-11-17T15:00:20.393Z,13.43
2022-11-17T15:05:26.008Z,13.36
2022-11-17T15:10:28.441Z,13.31
2022-11-17T15:15:33.263Z,13.20
2022-11-17T15:20:35.662Z,13.32
2022-11-17T15:25:41.070Z,13.35
2022-11-17T15:30:43.614Z,13.26
2022-11-17T15:35:46.111Z,13.16
2022-11-17T15:40:54.936Z,13.10
2022-11-17T15:46:08.078Z,13.07
2022-11-17T15:51:16.049Z,13.12
2022-11-17T15:56:24.352Z,13.04
2022-11-17T16:01:28.892Z,13.04
2022-11-17T16:06:32.983Z,13.04
2022-11-17T16:11:36.427Z,13.01
2022-11-17T16:16:40.086Z,12.87
2022-11-17T16:21:42.668Z,12.54
2022-11-17T16:26:45.894Z,12.29
2022-11-17T16:31:48.336Z,12.10
2022-11-17T16:36:50.758Z,11.98
2022-11-17T16:41:54.635Z,11.77
2022-11-17T16:46:57.104Z,11.67
2022-11-17T16:51:59.569Z,11.57
2022-11-17T16:57:01.934Z,11.56
2022-11-17T17:02:06.923Z,11.45
2022-11-17T17:07:09.971Z,11.40
2022-11-17T17:12:13.041Z,11.61
2022-11-17T17:17:16.973Z,11.64
2022-11-17T17:22:19.724Z,11.80
2022-11-17T17:27:22.242Z,11.76
2022-11-17T17:32:24.600Z,11.68
2022-11-17T17:37:27.029Z,11.64
2022-11-17T17:42:32.312Z,11.66
2022-11-17T17:47:34.766Z,11.77
2022-11-17T17:52:37.544Z,11.79
2022-11-17T17:57:41.076Z,11.85
2022-11-17T18:02:43.673Z,12.03
2022-11-17T18:07:46.107Z,12.41
2022-11-17T18:12:48.637Z,12.44
2022-11-17T18:17:51.085Z,12.41
2022-11-17T18:22:53.528Z,12.44
2022-11-17T18:27:57.138Z,12.49
2022-11-17T18:33:02.960Z,12.44
2022-11-17T18:38:05.747Z,12.34
2022-11-17T18:43:08.209Z,12.29
2022-11-17T18:48:11.067Z,12.36
2022-11-17T18:53:13.705Z,12.37
2022-11-17T18:58:16.095Z,12.33
2022-11-17T19:03:19.415Z,12.32
2022-11-17T19:08:22.876Z,12.41
2022-11-17T19:13:28.683Z,12.29
2022-11-17T19:18:31.249Z,12.23
2022-11-17T19:23:35.758Z,12.19
2022-11-17T19:28:39.458Z,12.15
2022-11-17T19:33:43.438Z,12.10
2022-11-17T19:38:49.955Z,12.11
2022-11-17T19:43:56.800Z,11.94
2022-11-17T19:48:59.642Z,11.42
2022-11-17T19:54:04.166Z,10.98
2022-11-17T19:59:09.667Z,10.77
2022-11-17T20:04:15.196Z,10.48
2022-11-17T20:09:17.894Z,10.33
2022-11-17T20:14:20.602Z,10.24
2022-11-17T20:19:23.038Z,10.36
2022-11-17T20:24:25.490Z,10.45
2022-11-17T20:29:27.991Z,10.32
2022-11-17T20:34:30.427Z,10.07
2022-11-17T20:39:32.817Z,9.83
2022-11-17T20:44:35.363Z,9.66
2022-11-17T20:49:38.044Z,9.55
2022-11-17T20:54:40.705Z,9.58
2022-11-17T20:59:43.648Z,9.58
2022-11-17T21:04:46.152Z,9.56
2022-11-17T21:09:48.596Z,9.58
2022-11-17T21:14:51.417Z,9.52
2022-11-17T21:19:53.854Z,9.50
2022-11-17T21:24:56.256Z,9.56
2022-11-17T21:30:01.462Z,9.53
2022-11-17T21:35:05.939Z,9.42
2022-11-17T21:40:09.109Z,9.30
2022-11-17T21:45:11.999Z,9.06
2022-11-17T21:50:14.483Z,9.00
2022-11-17T21:55:17.013Z,8.88
2022-11-17T22:00:19.718Z,8.99
2022-11-17T22:05:22.676Z,8.91
2022-11-17T22:10:25.340Z,9.00
2022-11-17T22:15:27.836Z,8.79
2022-11-17T22:20:30.279Z,8.82
2022-11-17T22:25:45.296Z,8.70
2022-11-17T22:30:48.473Z,8.66
2022-11-17T22:35:51.009Z,8.69
2022-11-17T22:40:58.535Z,8.60
2022-11-17T22:46:11.917Z,8.54
2022-11-17T22:51:34.851Z,8.56
2022-11-17T22:56:37.430Z,8.56
2022-11-17T23:01:40.092Z,8.55
2022-11-17T23:06:43.168Z,8.49
2022-11-17T23:11:45.860Z,8.51
2022-11-17T23:16:48.310Z,8.58
2022-11-17T23:21:50.679Z,8.54
2022-11-17T23:26:53.082Z,8.59
2022-11-17T23:31:55.557Z,8.61
2022-11-17T23:37:03.360Z,8.58
2022-11-17T23:42:06.359Z,8.58
2022-11-17T23:47:09.053Z,8.48
2022-11-17T23:52:11.743Z,8.55
2022-11-17T23:57:14.283Z,8.52
